Terminal Aerodrome Forecast
Issued by NWS

Home | Current Version | Previous Version | Text Only | Print | Product List | Glossary On
Versions: 1 2 3 4 5 6 7 8 9 10 11 12 13 14 15 16 17 18 19 20 21 22 23 24 25 26 27 28 29 30 31 32 33 34
000
FTUS45 KCYS 231725
TAFRWL
TAF
KRWL 231725Z 2318/2418 22021G31KT P6SM VCSH SCT050 BKN150
     FM232100 30016G36KT 5SM -SHRA BKN030
     FM240000 36015G30KT 2SM -RASN OVC015
     FM240200 01015G24KT 2SM -SN OVC015
     FM240800 36012KT 4SM -SN BLSN OVC010
     FM241500 29006KT P6SM BKN050=

USA.gov is the U.S. government's official web portal to all federal, state and local government web resources and services.